Météo Nord-Pas-de-Calais   La météo au plus près de chez vous

Station météorologique

Observations météo à Le Baril (97417)

97417360 114 m Dernier relevé à 12:30
20°C
Humidité 79 % Vent 13.3 km/h

Journée consultée

Lundi 31 Août 2026

Synthèse de la journée

Périodes de référence en UTC

Température maximale

22.8°C

à 09:00

06h 06h

Température minimale

17.4°C

à 03:42

18h 18h

Rafale maximale

37 km/h

à 03:12

00h 00h

Précipitations

4.6 mm

Cumul quotidien

06h 06h

Ensoleillement

0h 37 mins

Durée quotidienne

00h 00h

Graphiques de la journée

Heure locale Réduire

Données détaillées

Relevés météo

Pas de 6 minutes Afficher les relevés infra-horaires
Relevés météo détaillés à Le Baril pour le Lundi 31 Août 2026
Heure Température °C Point de rosée °C Humidité % Vent moyen (raf.), km/h Précipitations mm Ensoleillement min Rayonnement global W/m²
12:30 20 °C 17.6 °C 86 % 16 km/h (29 km/h) 0 mm0 mm 0 min 59.4 W/m²
12:24 19.9 °C 17.1 °C 84 % 17 km/h (29 km/h) 0 mm0 mm 0 min 49.8 W/m²
12:18 20.2 °C 17 °C 82 % 11 km/h (29 km/h) 0.8 mm0 mm 0 min 41.2 W/m²
12:12 20.7 °C 17.1 °C 80 % 9 km/h (24 km/h) 0.2 mm0 mm 0 min 41.9 W/m²
12:06 20.9 °C 17.3 °C 80 % 9 km/h (17 km/h) 0 mm0 mm 0 min 79.2 W/m²
12:00 20.7 °C 17.3 °C 81 % 11 km/h (21 km/h) 0 mm0.4 mm 0 min 92.4 W/m²
11:54 20.7 °C 17.3 °C 81 % 12 km/h (25 km/h) 0.2 mm0 mm 0 min 69.5 W/m²
11:48 20.8 °C 17.6 °C 82 % 9 km/h (17 km/h) 0 mm0 mm 0 min 70.9 W/m²
11:42 20.8 °C 17.6 °C 82 % 9 km/h (18 km/h) 0 mm0 mm 0 min 67.6 W/m²
11:36 20.8 °C 17.4 °C 81 % 13 km/h (26 km/h) 0 mm0 mm 0 min 72.6 W/m²
11:30 21.1 °C 17.3 °C 79 % 13 km/h (29 km/h) 0.2 mm0 mm 0 min 76.4 W/m²
11:24 21.7 °C 17.5 °C 77 % 12 km/h (24 km/h) 0 mm0 mm 1 min 147.4 W/m²
11:18 21.4 °C 17.2 °C 77 % 12 km/h (24 km/h) 0 mm0 mm 0 min 106.7 W/m²
11:12 21.6 °C 17 °C 75 % 10 km/h (20 km/h) 0 mm0 mm 0 min 88.5 W/m²
11:06 21.7 °C 17.3 °C 76 % 13 km/h (29 km/h) 0 mm0 mm 0 min 129.6 W/m²
11:00 21.6 °C 17.2 °C 76 % 15 km/h (29 km/h) 0 mm1 mm 0 min 168.7 W/m²
10:54 21.3 °C 17.5 °C 79 % 12 km/h (25 km/h) 0 mm0 mm 0 min 140.9 W/m²
10:48 21.1 °C 17.7 °C 81 % 12 km/h (25 km/h) 0 mm0 mm 0 min 129.6 W/m²
10:42 20.9 °C 17.5 °C 81 % 13 km/h (27 km/h) 0 mm0 mm 0 min 108.7 W/m²
10:36 20.6 °C 17.4 °C 82 % 13 km/h (26 km/h) 0 mm0 mm 0 min 131.3 W/m²
10:30 20.3 °C 16.9 °C 81 % 14 km/h (29 km/h) 0.2 mm0 mm 0 min 114.9 W/m²
10:24 20.4 °C 16.8 °C 80 % 10 km/h (26 km/h) 0.2 mm0 mm 0 min 114.4 W/m²
10:18 20.2 °C 18.1 °C 88 % 9 km/h (24 km/h) 0 mm0 mm 0 min 196 W/m²
10:12 19.7 °C 17.3 °C 86 % 13 km/h (31 km/h) 0.2 mm0 mm 0 min 127.2 W/m²
10:06 20.1 °C 17.1 °C 83 % 15 km/h (31 km/h) 0.4 mm0 mm 0 min 99.5 W/m²
10:00 21.4 °C 17 °C 76 % 15 km/h (31 km/h) 0 mm0.2 mm 0 min 114 W/m²
09:54 21.5 °C 17.3 °C 77 % 13 km/h (26 km/h) 0 mm0 mm 0 min 157.2 W/m²
09:48 21.2 °C 17.4 °C 79 % 11 km/h (27 km/h) 0.2 mm0 mm 2 min 214.4 W/m²
09:42 20.8 °C 17.2 °C 80 % 12 km/h (23 km/h) 0 mm0 mm 0 min 90.6 W/m²
09:36 20.9 °C 17.7 °C 82 % 12 km/h (31 km/h) 0 mm0 mm 0 min 88.6 W/m²
09:30 20.7 °C 17.5 °C 82 % 9 km/h (21 km/h) 0 mm0 mm 0 min 112.8 W/m²
09:24 20.4 °C 18 °C 86 % 10 km/h (27 km/h) 0 mm0 mm 0 min 88.9 W/m²
09:18 20.3 °C 17.5 °C 84 % 9 km/h (26 km/h) 0 mm0 mm 0 min 65.7 W/m²
09:12 20.2 °C 17.8 °C 86 % 8 km/h (18 km/h) 0 mm0 mm 0 min 81.4 W/m²
09:06 20 °C 17.8 °C 87 % 9 km/h (17 km/h) 0 mm0 mm 0 min 110.2 W/m²
09:00 19.8 °C 17.6 °C 87 % 12 km/h (28 km/h) 0 mm2 mm 0 min 92.7 W/m²
08:54 19.7 °C 17.3 °C 86 % 14 km/h (28 km/h) 0.2 mm0 mm 0 min 59.7 W/m²
08:48 20 °C 17.2 °C 84 % 10 km/h (22 km/h) 0 mm0 mm 0 min 47.2 W/m²
08:42 20 °C 17.6 °C 86 % 13 km/h (36 km/h) 0 mm0 mm 0 min 67.3 W/m²
08:36 19.9 °C 16.9 °C 83 % 17 km/h (36 km/h) 1.6 mm0 mm 0 min 49.8 W/m²
08:30 20.5 °C 17.5 °C 83 % 14 km/h (30 km/h) 0.2 mm0 mm 0 min 59.9 W/m²
08:24 21.7 °C 16.9 °C 74 % 13 km/h (30 km/h) 0 mm0 mm 0 min 95.9 W/m²
08:18 22.6 °C 16.6 °C 69 % 14 km/h (30 km/h) 0 mm0 mm 3 min 158.8 W/m²
08:12 22.6 °C 16.4 °C 68 % 16 km/h (32 km/h) 0 mm0 mm 4 min 229.4 W/m²
08:06 22.1 °C 16.1 °C 69 % 15 km/h (32 km/h) 0 mm0 mm 2 min 153 W/m²
08:00 22.2 °C 16.2 °C 69 % 12 km/h (26 km/h) 0 mm0 mm 3 min 142.1 W/m²
07:54 22 °C 16 °C 69 % 10 km/h (26 km/h) 0 mm0 mm 1 min 133.7 W/m²
07:48 21.7 °C 15.8 °C 69 % 12 km/h (26 km/h) 0 mm0 mm 2 min 125.5 W/m²
07:42 21.4 °C 15.9 °C 71 % 12 km/h (21 km/h) 0 mm0 mm 0 min 99.2 W/m²
07:36 21.2 °C 15.7 °C 71 % 14 km/h (26 km/h) 0 mm0 mm 0 min 64.5 W/m²
07:30 21.1 °C 15.6 °C 71 % 14 km/h (31 km/h) 0 mm0 mm 0 min 60.8 W/m²
07:24 21.2 °C 15.5 °C 70 % 12 km/h (31 km/h) 0 mm0 mm 0 min 60.4 W/m²
07:18 21.3 °C 15.8 °C 71 % 13 km/h (30 km/h) 0 mm0 mm 0 min 77.3 W/m²
07:12 21.3 °C 15.8 °C 71 % 12 km/h (30 km/h) 0 mm0 mm 0 min 94.3 W/m²
07:06 21.3 °C 16 °C 72 % 12 km/h (32 km/h) 0 mm0 mm 0 min 77.5 W/m²
07:00 21.8 °C 16.5 °C 72 % 10 km/h (26 km/h) 0 mm0 mm 4 min 159.7 W/m²
06:54 21.9 °C 16.6 °C 72 % 12 km/h (27 km/h) 0 mm0 mm 6 min 211.3 W/m²
06:48 21 °C 16.2 °C 74 % 12 km/h (25 km/h) 0 mm0 mm 5 min 160.1 W/m²
06:42 20.5 °C 15.9 °C 75 % 11 km/h (28 km/h) 0 mm0 mm 0 min 58.8 W/m²
06:36 20.5 °C 15.3 °C 72 % 12 km/h (28 km/h) 0 mm0 mm 0 min 43.3 W/m²
06:30 20.3 °C 14.9 °C 71 % 11 km/h (22 km/h) 0 mm0 mm 0 min 54.1 W/m²
06:24 20.1 °C 15.1 °C 73 % 10 km/h (24 km/h) 0 mm0 mm 0 min 57.2 W/m²
06:18 19.9 °C 14.9 °C 73 % 11 km/h (24 km/h) 0 mm0 mm 1 min 57.7 W/m²
06:12 19.7 °C 14.7 °C 73 % 9 km/h (20 km/h) 0 mm0 mm 0 min 47.5 W/m²
06:06 19.6 °C 15 °C 75 % 9 km/h (19 km/h) 0 mm0 mm 0 min 37.2 W/m²
06:00 19.7 °C 14.7 °C 73 % 11 km/h (19 km/h) 0 mm0.2 mm 0 min 25.9 W/m²
05:54 19.7 °C 14.9 °C 74 % 12 km/h (21 km/h) 0 mm0 mm 0 min 35.1 W/m²
05:48 19.6 °C 15.3 °C 76 % 11 km/h (22 km/h) 0 mm0 mm 0 min 44.8 W/m²
05:42 19.5 °C 15.8 °C 79 % 13 km/h (25 km/h) 0 mm0 mm 3 min 60.3 W/m²
05:36 19.2 °C 16.2 °C 83 % 13 km/h (26 km/h) 0 mm0 mm 0 min 36 W/m²
05:30 18.9 °C 15.8 °C 82 % 11 km/h (23 km/h) 0 mm0 mm 0 min 29.2 W/m²
05:24 19 °C 15.7 °C 81 % 12 km/h (25 km/h) 0.2 mm0 mm 0 min 26.9 W/m²
05:18 19.2 °C 15.3 °C 78 % 12 km/h (21 km/h) 0 mm0 mm 0 min 15 W/m²
05:12 19.4 °C 15.1 °C 76 % 11 km/h (21 km/h) 0 mm0 mm 0 min 10 W/m²
05:06 19.3 °C 15 °C 76 % 11 km/h (23 km/h) 0 mm0 mm 0 min 7.9 W/m²
05:00 19.3 °C 15 °C 76 % 13 km/h (23 km/h) 0 mm0 mm 0 min 6.4 W/m²
04:54 19.2 °C 14.9 °C 76 % 13 km/h (20 km/h) 0 mm0 mm 0 min 6.5 W/m²
04:48 19.4 °C 15.1 °C 76 % 13 km/h (27 km/h) 0 mm0 mm 0 min 6.6 W/m²
04:42 19.2 °C 15.1 °C 77 % 14 km/h (27 km/h) 0 mm0 mm 0 min 5.3 W/m²
04:36 19 °C 14.7 °C 76 % 13 km/h (25 km/h) 0 mm0 mm 0 min 0 W/m²
04:30 18.9 °C 14.6 °C 76 % 13 km/h (23 km/h) 0 mm0 mm 0 min 0 W/m²
04:24 19 °C 14.7 °C 76 % 14 km/h (23 km/h) 0 mm0 mm 0 min 0 W/m²
04:18 18.9 °C 14.6 °C 76 % 15 km/h (28 km/h) 0 mm0 mm 0 min 0 W/m²
04:12 18.8 °C 14.5 °C 76 % 17 km/h (28 km/h) 0 mm0 mm 0 min 0 W/m²
04:06 18.6 °C 14.3 °C 76 % 17 km/h (30 km/h) 0 mm0 mm 0 min 0 W/m²
04:00 18.2 °C 14.3 °C 78 % 16 km/h (30 km/h) 0 mm0.6 mm 0 min 0 W/m²
03:54 17.8 °C 14.3 °C 80 % 11 km/h (24 km/h) 0 mm0 mm 0 min 0 W/m²
03:48 17.4 °C 14.9 °C 85 % 7 km/h (18 km/h) 0 mm0 mm 0 min 0 W/m²
03:42 17.4 °C 15 °C 86 % 6 km/h (13 km/h) 0.4 mm0 mm 0 min 0 W/m²
03:36 17.8 °C 15.2 °C 85 % 8 km/h (21 km/h) 0 mm0 mm 0 min 0 W/m²
03:30 18.2 °C 14.9 °C 81 % 10 km/h (21 km/h) 0.2 mm0 mm 0 min 0 W/m²
03:24 18.9 °C 15 °C 78 % 10 km/h (21 km/h) 0 mm0 mm 0 min 0 W/m²
03:18 19.3 °C 13.7 °C 70 % 15 km/h (34 km/h) 0 mm0 mm 0 min 0 W/m²
03:12 19.2 °C 14 °C 72 % 21 km/h (37 km/h) 0 mm0 mm 0 min 0 W/m²
03:06 19.1 °C 14.1 °C 73 % 18 km/h (34 km/h) 0 mm0 mm 0 min 0 W/m²
03:00 19 °C 14.5 °C 75 % 18 km/h (30 km/h) 0 mm0 mm 0 min 0 W/m²
02:54 19.1 °C 14.6 °C 75 % 18 km/h (31 km/h) 0 mm0 mm 0 min 0 W/m²
02:48 19 °C 14.9 °C 77 % 17 km/h (31 km/h) 0 mm0 mm 0 min 0 W/m²
02:42 19 °C 15.3 °C 79 % 15 km/h (31 km/h) 0 mm0 mm 0 min 0 W/m²
02:36 19.1 °C 15.8 °C 81 % 15 km/h (31 km/h) 0 mm0 mm 0 min 0 W/m²
02:30 19.2 °C 16.1 °C 82 % 14 km/h (30 km/h) 0 mm0 mm 0 min 0 W/m²
02:24 19.3 °C 16.3 °C 83 % 15 km/h (36 km/h) 0 mm0 mm 0 min 0 W/m²
02:18 19.3 °C 16.5 °C 84 % 13 km/h (36 km/h) 0 mm0 mm 0 min 0 W/m²
02:12 19.3 °C 16.1 °C 82 % 10 km/h (24 km/h) 0 mm0 mm 0 min 0 W/m²
02:06 19.3 °C 16.3 °C 83 % 9 km/h (21 km/h) 0 mm0 mm 0 min 0 W/m²
02:00 19.2 °C 16.2 °C 83 % 10 km/h (20 km/h) 0 mm0 mm 0 min 0 W/m²
01:54 19.2 °C 16.1 °C 82 % 11 km/h (21 km/h) 0 mm0 mm 0 min 0 W/m²
01:48 19.2 °C 15.7 °C 80 % 10 km/h (18 km/h) 0 mm0 mm 0 min 0 W/m²
01:42 19.3 °C 15.4 °C 78 % 12 km/h (21 km/h) 0 mm0 mm 0 min 0 W/m²
01:36 19.3 °C 15.4 °C 78 % 13 km/h (27 km/h) 0 mm0 mm 0 min 0 W/m²
01:30 19.2 °C 15.3 °C 78 % 15 km/h (29 km/h) 0 mm0 mm 0 min 0 W/m²
01:24 19.1 °C 15.2 °C 78 % 16 km/h (32 km/h) 0 mm0 mm 0 min 0 W/m²
01:18 18.9 °C 15 °C 78 % 14 km/h (26 km/h) 0 mm0 mm 0 min 0 W/m²
01:12 19.3 °C 15 °C 76 % 15 km/h (27 km/h) 0 mm0 mm 0 min 0 W/m²
01:06 19.1 °C 14.8 °C 76 % 14 km/h (24 km/h) 0 mm0 mm 0 min 0 W/m²
01:00 19 °C 14.7 °C 76 % 14 km/h (24 km/h) 0 mm0 mm 0 min 0 W/m²
00:54 19 °C 14.5 °C 75 % 14 km/h (27 km/h) 0 mm0 mm 0 min 0 W/m²
00:48 19 °C 14.7 °C 76 % 13 km/h (27 km/h) 0 mm0 mm 0 min 0 W/m²
00:42 19 °C 14.9 °C 77 % 12 km/h (27 km/h) 0 mm0 mm 0 min 0 W/m²
00:36 18.9 °C 15 °C 78 % 13 km/h (29 km/h) 0 mm0 mm 0 min 0 W/m²
00:30 18.7 °C 15.6 °C 82 % 12 km/h (29 km/h) 0 mm0 mm 0 min 0 W/m²
00:24 18.5 °C 15.7 °C 84 % 12 km/h (21 km/h) 0 mm0 mm 0 min 0 W/m²
00:18 18.4 °C 16 °C 86 % 12 km/h (26 km/h) 0 mm0 mm 0 min 0 W/m²
00:12 18.3 °C 15.7 °C 85 % 12 km/h (21 km/h) 0 mm0 mm 0 min 0 W/m²
00:06 18.1 °C 15.4 °C 84 % 11 km/h (21 km/h) 0 mm0 mm 0 min 0 W/m²
00:00 17.9 °C 15.3 °C 85 % 12 km/h (24 km/h) 0.2 mm4.6 mm 0 min 0 W/m²

Données via Météo-France

Relevés météo à Le Baril

Cette page rassemble les observations de la station de Le Baril : température, humidité, vent, précipitations et pression atmosphérique. Les graphiques facilitent le suivi de la journée, tandis que le tableau donne accès aux mesures horaires et infra-horaires disponibles.

Pour replacer ces mesures dans leur contexte, consultez la climatologie de Le Baril ainsi que ses normales et records. Retrouvez aussi la carte des observations météo en temps réel.